KPIA/PIA METAR and TAF weather

Enter ICAO airport designator
Station Type Date Time Source
KPIA METAR 2022/01/19 19:54 UTC NOAA

KPIA 191954Z 31013G23KT 10SM FEW120 M09/M14 A3024


Station Type Date Time Source
KPIA Decoded METAR 2022/01/19 19:54 UTC NOAA

GREATER PEORIA REGIONAL AIRPORT , IL, United States (KPIA) 40-40N 89-41W 205M
Jan 19, 2022 - 02:54 PM EST / 2022.01.19 1954 UTC
Wind: from the NW (310 degrees) at 15 MPH (13 KT) gusting to 26 MPH (23 KT):0
Visibility: 10 mile(s):0
Sky conditions: mostly clear
Temperature: 15 F (-9 C)
Windchill: 0 F (-18 C):1
Dew Point: 6 F (-14 C)
Relative Humidity: 67%
Pressure (altimeter): 30.24 in. Hg (1024 hPa)
ob: KPIA 191954Z 31013G23KT 10SM FEW120 M09/M14 A3024
cycle: 20

Station Type Date Time Source
KPIA TAF 2022/01/19 18:27 UTC NOAA

TAF KPIA 191724Z 1918/2018 33012G23KT P6SM OVC100
FM200200 35014KT P6SM SCT050
FM201200 34010KT P6SM FEW150

Example: see airport list